Time;durP1;ratioP1;P1;durP2;ratioP2;P2;SDS_P1;SDS_P2;PMS_P1;PMS_P2;Temp;Humidity;BMP_temperature;BMP_pressure;BME280_temperature;BME280_humidity;BME280_pressure;Samples;Min_cycle;Max_cycle;Signal;HPM_P1;HPM_P2
2023/10/17 00:00:52;;;;;;;14.63;9.60;;;1.80;99.90;;;;;;5003550;28;20061;-82
2023/10/17 00:03:39;;;;;;;16.42;11.05;;;1.70;99.90;;;;;;5001726;28;20426;-82
2023/10/17 00:06:27;;;;;;;17.00;11.82;;;1.50;99.90;;;;;;5014679;28;20045;-81
2023/10/17 00:09:21;;;;;;;18.25;11.30;;;1.40;99.90;;;;;;5015393;28;20147;-81
2023/10/17 00:12:25;;;;;;;14.80;10.98;;;1.40;99.90;;;;;;5017101;28;20442;-82
2023/10/17 00:18:16;;;;;;;18.27;12.65;;;1.20;99.90;;;;;;5014447;28;20050;-81
2023/10/17 00:24:26;;;;;;;16.83;11.35;;;1.00;99.90;;;;;;5002965;28;20058;-82
2023/10/17 00:27:14;;;;;;;17.15;11.60;;;0.90;99.90;;;;;;4997897;28;20364;-82
2023/10/17 00:30:02;;;;;;;18.05;11.32;;;0.80;99.90;;;;;;5014725;28;20121;-82
2023/10/17 00:32:50;;;;;;;18.08;11.02;;;0.80;99.90;;;;;;5009254;28;20041;-82
2023/10/17 00:35:48;;;;;;;19.42;12.35;;;0.70;99.90;;;;;;5015251;28;20125;-82
2023/10/17 00:38:36;;;;;;;18.75;11.13;;;0.70;99.90;;;;;;5012814;28;20057;-82
2023/10/17 00:41:32;;;;;;;15.75;10.70;;;0.70;99.90;;;;;;5007190;28;20056;-82
2023/10/17 00:44:30;;;;;;;18.33;11.15;;;0.60;99.90;;;;;;5001909;28;20046;-82
2023/10/17 00:47:19;;;;;;;20.20;11.20;;;0.60;99.90;;;;;;5005331;28;20370;-83
2023/10/17 00:50:12;;;;;;;18.08;11.65;;;0.50;99.90;;;;;;5016962;28;20053;-82
2023/10/17 00:53:00;;;;;;;21.20;12.05;;;0.40;99.90;;;;;;5018249;28;20331;-82
2023/10/17 00:55:51;;;;;;;19.38;12.50;;;0.30;99.90;;;;;;5017556;28;20046;-81
2023/10/17 00:58:43;;;;;;;22.20;13.45;;;0.30;99.90;;;;;;5016875;28;20104;-82
2023/10/17 01:01:32;;;;;;;21.90;13.35;;;0.30;99.90;;;;;;5004391;28;20481;-81
2023/10/17 01:04:22;;;;;;;19.35;12.82;;;0.40;99.90;;;;;;5015993;28;20523;-82
2023/10/17 01:07:12;;;;;;;18.88;13.05;;;0.40;99.90;;;;;;5012815;28;20054;-82
2023/10/17 01:10:13;;;;;;;20.55;13.43;;;0.40;99.90;;;;;;5015420;28;20045;-82
2023/10/17 01:13:03;;;;;;;27.92;13.38;;;0.40;99.90;;;;;;5013622;28;20061;-82
2023/10/17 01:15:53;;;;;;;25.60;14.88;;;0.40;99.90;;;;;;5006798;28;20046;-82
2023/10/17 01:18:41;;;;;;;22.92;14.25;;;0.40;99.90;;;;;;5013776;28;20078;-82
2023/10/17 01:21:28;;;;;;;28.98;15.27;;;0.40;99.90;;;;;;5016827;28;20116;-83
2023/10/17 01:24:16;;;;;;;25.50;14.95;;;0.30;99.90;;;;;;5006651;28;20060;-82
2023/10/17 01:27:06;;;;;;;24.92;14.15;;;0.40;99.90;;;;;;5011303;28;20524;-82
2023/10/17 01:29:53;;;;;;;24.73;15.05;;;0.40;99.90;;;;;;4999499;28;20048;-82
2023/10/17 01:32:41;;;;;;;26.77;15.60;;;0.40;99.90;;;;;;5017769;28;20053;-82
2023/10/17 01:35:28;;;;;;;19.70;13.35;;;0.30;99.90;;;;;;5014662;28;20056;-82
2023/10/17 01:38:19;;;;;;;28.05;15.18;;;0.20;99.90;;;;;;5015067;28;20050;-81
2023/10/17 01:41:06;;;;;;;23.85;14.07;;;0.10;99.90;;;;;;5018557;28;20053;-81
2023/10/17 01:43:53;;;;;;;23.65;14.48;;;0.00;99.90;;;;;;5014819;28;20072;-82
2023/10/17 01:46:43;;;;;;;25.83;16.15;;;0.00;99.90;;;;;;5015570;28;20042;-82
2023/10/17 01:49:31;;;;;;;27.27;16.42;;;0.00;99.90;;;;;;5014162;28;20187;-82
2023/10/17 01:52:18;;;;;;;26.45;15.90;;;0.00;99.90;;;;;;5013281;28;20064;-82
2023/10/17 01:55:09;;;;;;;29.20;16.48;;;-0.10;99.90;;;;;;5014864;28;20060;-82
2023/10/17 01:57:59;;;;;;;28.63;16.38;;;-0.10;99.90;;;;;;5007056;28;20489;-81
2023/10/17 02:00:47;;;;;;;31.67;17.00;;;-0.10;99.90;;;;;;5007261;28;20334;-81
2023/10/17 02:03:34;;;;;;;28.80;16.73;;;0.10;99.90;;;;;;5016692;28;20665;-82
2023/10/17 02:06:22;;;;;;;29.02;16.58;;;0.20;99.90;;;;;;5002425;28;20074;-81
2023/10/17 02:12:23;;;;;;;;;;;0.10;99.90;;;;;;4999477;28;20363;-82
2023/10/17 02:15:12;;;;;;;23.85;14.43;;;0.00;99.90;;;;;;5015768;28;19922;-82
2023/10/17 02:18:06;;;;;;;26.95;15.82;;;-0.10;99.90;;;;;;4999565;28;20065;-82
2023/10/17 02:20:54;;;;;;;24.40;14.93;;;-0.10;99.90;;;;;;4989595;28;20372;-82
2023/10/17 02:23:49;;;;;;;28.00;16.17;;;-0.20;99.90;;;;;;5006858;28;20125;-82
2023/10/17 02:26:42;;;;;;;29.23;17.00;;;-0.10;99.90;;;;;;4989223;28;20065;-82
2023/10/17 02:29:39;;;;;;;24.13;15.68;;;-0.10;99.90;;;;;;5013176;28;20053;-82
2023/10/17 02:32:26;;;;;;;35.42;18.90;;;0.10;99.90;;;;;;5013530;28;20168;-82
2023/10/17 02:35:17;;;;;;;29.25;17.50;;;0.10;99.90;;;;;;5013920;28;20454;-81
2023/10/17 02:38:05;;;;;;;28.88;16.92;;;0.10;99.90;;;;;;5013488;28;20046;-82
2023/10/17 02:40:56;;;;;;;27.67;17.27;;;0.10;99.90;;;;;;5014273;28;20057;-82
2023/10/17 02:43:52;;;;;;;35.00;17.13;;;0.20;99.90;;;;;;5009608;28;20396;-82
2023/10/17 02:46:41;;;;;;;31.02;16.88;;;0.20;99.90;;;;;;5012000;28;20042;-82
2023/10/17 02:49:36;;;;;;;29.92;17.80;;;0.10;99.90;;;;;;5008798;28;20442;-82
2023/10/17 02:52:28;;;;;;;28.08;17.15;;;0.00;99.90;;;;;;5012257;28;20038;-82
2023/10/17 02:55:23;;;;;;;35.00;18.55;;;0.00;99.90;;;;;;5012167;28;20042;-81
2023/10/17 02:58:11;;;;;;;34.03;18.23;;;-0.10;99.90;;;;;;5013599;28;20049;-81
2023/10/17 03:00:58;;;;;;;30.05;17.52;;;-0.10;99.90;;;;;;5014106;28;20122;-82
2023/10/17 03:03:51;;;;;;;32.67;18.08;;;0.00;99.90;;;;;;4995090;28;20062;-82
2023/10/17 03:06:42;;;;;;;31.17;18.55;;;0.00;99.90;;;;;;5013479;28;20125;-80
2023/10/17 03:12:22;;;;;;;32.80;18.77;;;0.10;99.90;;;;;;5012592;28;20085;-82
2023/10/17 03:18:02;;;;;;;;;;;0.10;99.90;;;;;;5014384;28;20060;-81
2023/10/17 03:20:53;;;;;;;32.17;18.65;;;0.10;99.90;;;;;;5008250;28;19961;-82
2023/10/17 03:23:46;;;;;;;33.65;18.58;;;0.00;99.90;;;;;;5015697;28;20042;-82
2023/10/17 03:26:41;;;;;;;38.97;17.63;;;0.00;99.90;;;;;;5013391;28;20458;-82
2023/10/17 03:29:30;;;;;;;32.75;18.23;;;-0.10;99.90;;;;;;5001427;28;20045;-82
2023/10/17 03:32:23;;;;;;;33.65;18.23;;;-0.10;99.90;;;;;;5003410;28;20050;-82
2023/10/17 03:35:20;;;;;;;33.92;17.90;;;-0.20;99.90;;;;;;5010292;28;20042;-81
2023/10/17 03:38:14;;;;;;;34.55;18.58;;;-0.10;99.90;;;;;;5011157;28;20112;-82
2023/10/17 03:41:02;;;;;;;30.77;17.70;;;0.00;99.90;;;;;;5000672;28;20056;-80
2023/10/17 03:43:52;;;;;;;44.42;28.15;;;0.10;99.90;;;;;;5000005;28;20482;-82
2023/10/17 03:46:39;;;;;;;39.50;25.38;;;0.10;99.90;;;;;;5004258;28;20374;-82
2023/10/17 03:49:36;;;;;;;42.78;21.77;;;0.10;99.90;;;;;;5002033;28;20046;-82
2023/10/17 03:52:24;;;;;;;37.53;20.65;;;0.10;99.90;;;;;;5012959;28;20497;-82
2023/10/17 03:55:12;;;;;;;36.08;21.55;;;0.20;99.90;;;;;;5015082;28;20041;-82
2023/10/17 03:58:00;;;;;;;36.03;20.48;;;0.10;99.90;;;;;;5006033;28;20169;-82
2023/10/17 04:00:47;;;;;;;34.47;19.80;;;0.10;99.90;;;;;;5012143;28;20123;-82
2023/10/17 04:03:34;;;;;;;37.28;20.45;;;0.00;99.90;;;;;;5004353;28;20042;-82
2023/10/17 04:06:48;;;;;;;42.05;21.38;;;0.20;99.90;;;;;;5010491;28;20386;-82
2023/10/17 04:09:37;;;;;;;35.42;19.52;;;0.20;99.90;;;;;;5011290;28;20057;-82
2023/10/17 04:12:38;;;;;;;35.75;20.80;;;0.30;99.90;;;;;;5012909;28;20056;-82
2023/10/17 04:15:27;;;;;;;40.83;20.98;;;0.40;99.90;;;;;;5010401;28;20049;-82
2023/10/17 04:18:22;;;;;;;33.97;19.30;;;0.50;99.90;;;;;;5008109;28;20104;-81
2023/10/17 04:21:18;;;;;;;34.58;18.83;;;0.50;99.90;;;;;;5010056;28;20408;-82
2023/10/17 04:24:09;;;;;;;32.70;19.75;;;0.40;99.90;;;;;;5013593;28;20188;-82
2023/10/17 04:30:00;;;;;;;33.70;19.85;;;0.40;99.90;;;;;;5011604;28;20034;-82
2023/10/17 04:32:52;;;;;;;38.58;19.77;;;0.30;99.90;;;;;;4998907;28;20058;-82
2023/10/17 04:35:53;;;;;;;33.63;19.50;;;0.40;99.90;;;;;;5016022;28;20041;-82
2023/10/17 04:38:46;;;;;;;32.63;19.85;;;0.40;99.90;;;;;;5012984;28;20601;-82
2023/10/17 04:44:40;;;;;;;36.63;19.23;;;0.40;99.90;;;;;;5014773;28;20121;-83
2023/10/17 04:47:31;;;;;;;35.92;18.42;;;0.40;99.90;;;;;;5013530;28;20060;-80
2023/10/17 04:50:19;;;;;;;30.52;17.60;;;0.40;99.90;;;;;;5016577;28;20042;-80
2023/10/17 04:53:06;;;;;;;35.60;18.08;;;0.50;99.90;;;;;;5006786;28;20064;-80
2023/10/17 04:56:11;;;;;;;34.28;17.10;;;0.50;99.90;;;;;;5020980;28;20049;-80
2023/10/17 04:59:02;;;;;;;30.52;16.05;;;0.60;99.90;;;;;;5014022;28;20124;-81
2023/10/17 05:01:53;;;;;;;29.85;17.17;;;0.60;99.90;;;;;;5015076;28;20054;-80
2023/10/17 06:19:02;;;;;;;53.58;24.63;;;1.50;99.90;;;;;;5014173;28;20679;-87
2023/10/17 06:34:18;;;;;;;34.10;17.00;;;1.90;99.90;;;;;;5008319;28;20385;-89
2023/10/17 06:37:09;;;;;;;35.13;19.05;;;1.90;99.90;;;;;;5005831;28;20097;-89
2023/10/17 06:39:58;;;;;;;40.85;20.85;;;2.00;99.90;;;;;;5009486;28;20050;-89
2023/10/17 06:42:50;;;;;;;40.67;21.02;;;2.10;99.90;;;;;;5004007;28;20060;-88
2023/10/17 06:45:51;;;;;;;34.92;17.95;;;2.20;99.90;;;;;;5011241;28;20046;-86
2023/10/17 06:48:48;;;;;;;38.00;19.70;;;2.20;99.90;;;;;;5011098;28;20121;-88
2023/10/17 06:51:36;;;;;;;44.72;22.85;;;2.30;99.90;;;;;;5009996;28;20057;-88
2023/10/17 06:54:25;;;;;;;25.23;15.98;;;2.50;99.90;;;;;;5011142;28;20120;-81
2023/10/17 06:57:36;;;;;;;22.85;15.30;;;2.60;99.90;;;;;;4998153;28;20046;-87
2023/10/17 07:00:24;;;;;;;;;;;;;;;;;;;;;
2023/10/17 07:03:15;;;;;;;33.60;16.63;;;2.30;99.90;;;;;;5013786;28;20469;-89
2023/10/17 07:06:24;;;;;;;38.40;16.73;;;2.20;99.90;;;;;;5009356;28;20057;-88
2023/10/17 07:09:17;;;;;;;34.55;15.70;;;2.30;99.90;;;;;;5012195;28;20061;-87
2023/10/17 07:12:06;;;;;;;37.67;17.08;;;2.60;99.90;;;;;;5000619;28;20581;-85
2023/10/17 07:14:56;;;;;;;22.80;14.75;;;2.90;99.90;;;;;;5014253;28;20049;-86
2023/10/17 07:17:49;;;;;;;25.85;13.82;;;3.10;99.90;;;;;;5009594;28;20046;-86
2023/10/17 07:21:17;;;;;;;19.73;13.35;;;3.10;99.90;;;;;;5016411;28;20042;-84
2023/10/17 07:24:07;;;;;;;24.00;14.82;;;3.20;99.90;;;;;;5013105;28;20594;-85
2023/10/17 07:26:55;;;;;;;20.85;13.80;;;3.30;99.90;;;;;;5014248;28;20038;-83
2023/10/17 07:30:03;;;;;;;20.00;13.93;;;3.30;99.90;;;;;;5015495;28;20037;-85
2023/10/17 07:32:56;;;;;;;25.02;14.70;;;3.20;99.90;;;;;;5013274;28;20046;-86
2023/10/17 07:35:56;;;;;;;;;;;3.20;99.90;;;;;;5009461;28;20042;-86
2023/10/17 07:38:48;;;;;;;29.33;14.95;;;3.20;99.90;;;;;;5010459;28;19922;-87
2023/10/17 07:41:44;;;;;;;23.60;13.80;;;3.40;99.90;;;;;;5011717;28;20053;-87
2023/10/17 07:44:39;;;;;;;21.77;14.43;;;3.50;99.90;;;;;;5013625;28;20061;-88
2023/10/17 07:47:33;;;;;;;25.05;15.63;;;3.70;99.90;;;;;;5023208;28;20050;-85
2023/10/17 07:50:25;;;;;;;21.10;13.85;;;4.10;93.90;;;;;;5012001;28;20339;-86
2023/10/17 07:53:19;;;;;;;19.73;13.55;;;4.50;25.00;;;;;;5003725;28;20038;-85
2023/10/17 07:56:12;;;;;;;21.77;13.18;;;4.90;1.00;;;;;;5004108;28;20046;-84
2023/10/17 07:59:15;;;;;;;17.92;12.65;;;5.30;1.00;;;;;;5016563;28;20053;-85
2023/10/17 08:02:18;;;;;;;19.23;12.93;;;5.70;99.90;;;;;;5014216;28;20041;-83
2023/10/17 08:05:19;;;;;;;23.42;13.25;;;5.80;1.00;;;;;;5012415;28;20465;-83
2023/10/17 08:08:13;;;;;;;17.05;12.13;;;5.90;3.10;;;;;;5009457;28;20108;-83
2023/10/17 08:11:05;;;;;;;21.52;12.90;;;6.20;99.90;;;;;;5013982;28;20445;-83
2023/10/17 08:13:56;;;;;;;18.80;13.07;;;6.50;1.00;;;;;;5013905;28;20125;-86
2023/10/17 08:16:49;;;;;;;18.52;12.85;;;6.70;99.90;;;;;;5014569;28;20292;-85
2023/10/17 08:24:25;;;;;;;21.80;14.07;;;7.00;99.90;;;;;;4937902;29;20051;-85
2023/10/17 08:28:05;;;;;;;21.17;13.98;;;6.90;99.90;;;;;;4974115;28;20466;-79
2023/10/17 08:30:26;;;;;;;23.75;14.35;;;7.00;99.90;;;;;;5014802;28;20053;-82
2023/10/17 08:33:40;;;;;;;23.85;15.63;;;7.20;99.90;;;;;;5012817;28;20406;-85
2023/10/17 08:42:30;;;;;;;21.15;14.02;;;7.30;99.90;;;;;;5015314;28;20125;-86
2023/10/17 08:45:19;;;;;;;23.90;14.82;;;7.50;99.90;;;;;;5016002;28;20047;-85
2023/10/17 08:48:09;;;;;;;26.63;16.05;;;7.70;58.90;;;;;;5010034;28;20049;-86
2023/10/17 08:50:59;;;;;;;23.27;14.85;;;7.80;63.10;;;;;;5016370;28;20042;-86
2023/10/17 08:53:54;;;;;;;19.70;13.85;;;8.10;22.40;;;;;;5014896;28;20488;-86
2023/10/17 08:56:45;;;;;;;22.60;15.52;;;8.20;1.00;;;;;;5016035;28;20073;-85
2023/10/17 09:02:32;;;;;;;20.90;14.48;;;8.10;1.00;;;;;;5015032;28;20131;-83
2023/10/17 09:05:27;;;;;;;22.48;15.32;;;8.10;1.00;;;;;;5015574;28;20121;-84
2023/10/17 09:08:22;;;;;;;22.48;15.25;;;8.50;1.00;;;;;;5014479;28;20710;-84
2023/10/17 09:11:14;;;;;;;20.42;14.68;;;8.90;99.90;;;;;;5016259;28;20042;-86
2023/10/17 09:17:11;;;;;;;20.52;13.90;;;9.10;99.90;;;;;;5011615;28;20454;-82
2023/10/17 09:20:06;;;;;;;23.30;13.27;;;9.70;99.90;;;;;;5008942;28;20049;-82
2023/10/17 09:22:54;;;;;;;21.75;13.38;;;10.40;99.90;;;;;;5014433;28;20056;-85
2023/10/17 09:25:51;;;;;;;18.40;13.27;;;10.50;34.00;;;;;;5010657;28;20045;-85
2023/10/17 09:28:40;;;;;;;19.13;13.05;;;10.60;1.00;;;;;;5010005;28;20089;-86
2023/10/17 09:31:27;;;;;;;19.77;13.32;;;10.80;1.00;;;;;;5012642;28;20066;-88
2023/10/17 09:34:16;;;;;;;17.38;11.85;;;11.10;1.00;;;;;;5015880;28;20057;-87
2023/10/17 09:37:05;;;;;;;16.95;12.77;;;11.40;99.90;;;;;;5006946;28;20057;-86
2023/10/17 09:39:56;;;;;;;16.92;11.88;;;11.30;99.90;;;;;;5026325;28;20042;-83
2023/10/17 09:42:46;;;;;;;18.13;12.35;;;10.90;99.90;;;;;;5027020;28;20042;-90
2023/10/17 09:45:33;;;;;;;19.00;13.90;;;10.90;99.90;;;;;;5025541;28;20053;-85
2023/10/17 09:48:32;;;;;;;17.92;12.85;;;11.10;99.90;;;;;;5014493;28;20049;-86
2023/10/17 09:51:21;;;;;;;17.77;12.55;;;11.40;99.90;;;;;;5014808;28;20129;-81
2023/10/17 09:54:11;;;;;;;19.48;13.07;;;11.60;99.90;;;;;;5012060;28;20042;-89
2023/10/17 09:56:59;;;;;;;15.63;12.20;;;12.20;99.90;;;;;;5012107;28;20073;-86
2023/10/17 10:00:01;;;;;;;15.77;11.60;;;12.60;99.90;;;;;;5012660;28;20061;-85
2023/10/17 10:02:49;;;;;;;15.95;11.63;;;13.30;99.90;;;;;;5012802;28;20390;-87
2023/10/17 10:06:16;;;;;;;18.42;12.02;;;13.40;99.90;;;;;;5013222;28;20038;-89
2023/10/17 10:09:13;;;;;;;15.48;12.25;;;13.80;99.90;;;;;;5015522;28;20042;-87
2023/10/17 10:12:01;;;;;;;15.18;11.38;;;13.40;99.90;;;;;;5010018;28;20061;-89
2023/10/17 10:14:50;;;;;;;16.20;11.90;;;12.80;99.90;;;;;;5015533;28;20042;-91
2023/10/17 10:17:49;;;;;;;15.95;12.90;;;13.00;99.90;;;;;;5013042;28;20099;-91
2023/10/17 10:20:56;;;;;;;16.33;11.95;;;12.60;99.90;;;;;;4997279;28;20100;-89
2023/10/17 10:23:45;;;;;;;17.20;11.20;;;12.40;99.90;;;;;;5009974;28;20188;-89
2023/10/17 10:26:35;;;;;;;14.27;10.47;;;12.30;99.90;;;;;;5010730;28;20060;-88
2023/10/17 10:29:23;;;;;;;15.30;11.25;;;12.60;99.90;;;;;;5022884;28;20056;-89
2023/10/17 10:32:25;;;;;;;15.50;11.18;;;12.90;99.90;;;;;;5013969;28;20456;-90
2023/10/17 10:35:14;;;;;;;;;;;13.30;99.90;;;;;;5016264;28;20119;-90
2023/10/17 10:38:06;;;;;;;15.23;9.73;;;13.50;99.90;;;;;;5014645;28;19922;-90
2023/10/17 10:40:53;;;;;;;13.13;9.88;;;13.90;99.90;;;;;;4997145;28;20103;-89
2023/10/17 10:43:41;;;;;;;17.58;11.48;;;13.60;99.90;;;;;;5010450;28;20048;-90
2023/10/17 10:46:31;;;;;;;15.75;10.60;;;13.00;99.90;;;;;;5000918;28;20061;-90
2023/10/17 10:49:31;;;;;;;16.02;10.82;;;12.80;99.90;;;;;;5017199;28;20481;-87
2023/10/17 10:52:24;;;;;;;13.23;9.95;;;13.00;99.90;;;;;;5013482;28;20053;-89
2023/10/17 10:55:17;;;;;;;;;;;14.20;99.90;;;;;;5015266;28;20117;-89
2023/10/17 10:58:06;;;;;;;;;;;15.40;99.90;;;;;;5005230;28;19932;-91
2023/10/17 11:00:58;;;;;;;13.70;9.90;;;15.60;99.90;;;;;;5016329;28;20374;-89
2023/10/17 11:03:48;;;;;;;10.18;8.65;;;15.30;99.90;;;;;;5015248;28;20063;-89
2023/10/17 11:06:40;;;;;;;11.48;9.25;;;15.00;99.90;;;;;;5004335;28;20149;-87
2023/10/17 11:09:30;;;;;;;12.82;9.20;;;15.60;99.90;;;;;;5015589;28;20046;-86
2023/10/17 11:12:25;;;;;;;11.65;9.20;;;15.50;94.30;;;;;;5006750;28;20057;-79
2023/10/17 11:15:18;;;;;;;12.05;8.70;;;15.70;89.90;;;;;;5015354;28;20042;-87
2023/10/17 11:18:06;;;;;;;13.63;8.43;;;16.00;88.50;;;;;;4992734;28;20046;-87
2023/10/17 11:21:02;;;;;;;10.48;7.82;;;16.40;79.30;;;;;;5017716;28;20060;-86
2023/10/17 11:23:53;;;;;;;13.82;9.55;;;16.20;56.80;;;;;;5012945;28;21490;-86
2023/10/17 11:26:43;;;;;;;11.82;9.10;;;15.20;48.70;;;;;;5013110;28;20117;-84
2023/10/17 11:29:30;;;;;;;13.45;9.80;;;14.50;62.00;;;;;;5012900;28;20438;-85
2023/10/17 11:32:18;;;;;;;13.88;9.75;;;13.80;70.90;;;;;;5015086;28;20373;-86
2023/10/17 11:35:11;;;;;;;13.60;10.00;;;13.30;82.20;;;;;;5015671;28;20046;-86
2023/10/17 11:38:09;;;;;;;13.50;10.77;;;13.10;84.30;;;;;;5014171;28;20053;-86
2023/10/17 11:41:03;;;;;;;17.92;9.98;;;12.90;96.00;;;;;;5014290;28;20461;-84
2023/10/17 11:43:54;;;;;;;13.43;10.05;;;12.80;99.90;;;;;;5011785;28;20050;-84
2023/10/17 11:49:49;;;;;;;16.42;10.65;;;12.60;99.90;;;;;;5020900;28;20042;-84
2023/10/17 11:52:40;;;;;;;14.55;10.70;;;12.60;99.90;;;;;;5017193;28;20045;-82
2023/10/17 11:55:27;;;;;;;14.73;10.40;;;12.70;99.90;;;;;;5014515;28;20382;-84
2023/10/17 11:58:25;;;;;;;16.92;10.57;;;12.90;99.90;;;;;;5014124;28;20038;-84
2023/10/17 12:01:16;;;;;;;21.83;10.88;;;13.10;99.90;;;;;;5015600;28;20077;-86
2023/10/17 12:04:08;;;;;;;12.43;10.43;;;13.10;99.90;;;;;;5002675;28;20128;-84
2023/10/17 12:06:56;;;;;;;14.98;10.82;;;13.00;99.90;;;;;;5016426;28;20041;-80
2023/10/17 12:09:45;;;;;;;16.55;10.48;;;12.70;99.90;;;;;;5020617;28;20038;-84
2023/10/17 12:12:34;;;;;;;20.95;11.57;;;12.40;99.90;;;;;;5024978;28;20065;-84
2023/10/17 12:15:23;;;;;;;16.60;11.15;;;12.50;99.90;;;;;;5023374;28;20053;-80
2023/10/17 12:18:12;;;;;;;16.77;11.13;;;12.80;99.90;;;;;;5027586;28;20042;-86
2023/10/17 12:21:01;;;;;;;14.73;10.95;;;13.00;99.90;;;;;;5032070;28;20058;-85
2023/10/17 12:23:48;;;;;;;19.70;11.23;;;13.00;99.90;;;;;;5035134;28;20042;-85
2023/10/17 12:26:35;;;;;;;16.70;11.55;;;13.20;99.90;;;;;;5026098;28;20049;-85
2023/10/17 12:29:26;;;;;;;18.38;11.82;;;13.50;99.90;;;;;;5017886;28;20042;-86
2023/10/17 12:32:13;;;;;;;18.17;12.27;;;13.50;99.90;;;;;;5027217;28;20042;-85
2023/10/17 12:35:05;;;;;;;19.88;11.95;;;13.40;99.90;;;;;;5011669;28;20089;-85
2023/10/17 12:37:57;;;;;;;15.57;10.70;;;13.30;99.90;;;;;;5022677;28;20081;-84
2023/10/17 12:40:46;;;;;;;17.50;11.65;;;13.40;99.90;;;;;;5022475;28;20056;-85
2023/10/17 12:43:35;;;;;;;18.50;12.07;;;13.30;99.90;;;;;;5013219;28;20149;-85
2023/10/17 12:46:23;;;;;;;16.85;11.73;;;13.00;99.90;;;;;;5016086;28;20045;-86
2023/10/17 12:49:14;;;;;;;19.20;12.07;;;13.00;99.90;;;;;;5013246;28;20042;-83
2023/10/17 12:52:06;;;;;;;16.50;12.25;;;12.90;99.90;;;;;;5014028;28;20049;-86
2023/10/17 12:54:54;;;;;;;19.02;12.65;;;12.80;99.90;;;;;;5015489;28;20602;-87
2023/10/17 12:57:43;;;;;;;17.75;12.50;;;12.80;99.90;;;;;;5012749;28;20052;-87
2023/10/17 13:00:32;;;;;;;19.63;12.55;;;12.90;99.90;;;;;;5011273;28;20378;-80
2023/10/17 13:03:22;;;;;;;20.77;12.90;;;12.30;99.90;;;;;;5017520;28;20058;-88
2023/10/17 13:06:09;;;;;;;22.67;12.95;;;12.10;99.90;;;;;;5014569;28;20046;-85
2023/10/17 13:08:57;;;;;;;17.52;13.10;;;12.20;99.90;;;;;;5014055;28;20038;-86
2023/10/17 13:11:44;;;;;;;19.08;13.30;;;12.40;99.90;;;;;;5011405;28;20057;-86
2023/10/17 13:14:32;;;;;;;16.58;12.52;;;12.60;99.90;;;;;;4998884;28;20455;-85
2023/10/17 13:17:21;;;;;;;19.02;12.70;;;12.60;99.90;;;;;;5012590;28;20060;-86
2023/10/17 13:20:14;;;;;;;17.80;13.05;;;12.60;99.90;;;;;;5010631;28;20059;-85
2023/10/17 13:23:23;;;;;;;16.15;11.50;;;12.50;99.90;;;;;;5015666;28;20053;-86
2023/10/17 13:26:12;;;;;;;17.73;12.13;;;12.60;99.90;;;;;;5015275;28;20066;-86
2023/10/17 13:29:00;;;;;;;15.95;11.88;;;12.50;99.90;;;;;;4997359;28;20068;-86
2023/10/17 13:31:50;;;;;;;17.30;12.07;;;12.30;99.90;;;;;;5015753;28;20454;-87
2023/10/17 13:34:37;;;;;;;21.40;12.68;;;12.30;99.90;;;;;;5009726;28;20128;-86
2023/10/17 13:37:28;;;;;;;17.05;11.88;;;12.40;99.90;;;;;;5012537;28;20050;-87
2023/10/17 13:40:15;;;;;;;16.52;11.98;;;12.80;99.90;;;;;;5017249;28;20052;-87
2023/10/17 13:43:04;;;;;;;18.20;11.98;;;13.00;99.90;;;;;;5016855;28;20129;-87
2023/10/17 13:45:51;;;;;;;16.80;11.57;;;13.20;99.90;;;;;;5002114;28;20141;-86
2023/10/17 13:48:50;;;;;;;20.55;12.88;;;13.30;99.90;;;;;;5019997;28;20077;-83
2023/10/17 13:51:46;;;;;;;22.13;12.45;;;13.20;99.90;;;;;;5016762;28;20049;-88
2023/10/17 13:54:37;;;;;;;16.42;11.13;;;13.20;99.90;;;;;;4994801;28;20038;-86
2023/10/17 13:57:29;;;;;;;;;;;13.60;99.90;;;;;;5011619;28;20042;-87
2023/10/17 14:00:19;;;;;;;15.63;10.82;;;14.70;99.90;;;;;;5011641;28;20503;-87
2023/10/17 14:03:12;;;;;;;16.00;9.90;;;15.90;99.90;;;;;;4996099;28;20054;-85
2023/10/17 14:06:00;;;;;;;20.45;10.43;;;17.10;84.60;;;;;;5011991;28;20794;-85
2023/10/17 14:08:47;;;;;;;16.40;9.70;;;17.60;64.00;;;;;;5000058;28;20066;-85
2023/10/17 14:11:35;;;;;;;11.50;8.85;;;18.40;43.70;;;;;;5014872;28;20053;-86
2023/10/17 14:14:26;;;;;;;14.73;9.45;;;17.30;22.50;;;;;;4999485;28;20093;-85
2023/10/17 14:17:13;;;;;;;13.02;9.50;;;16.80;18.80;;;;;;5014827;28;20103;-88
2023/10/17 14:20:16;;;;;;;14.30;10.57;;;15.80;24.70;;;;;;5013933;28;20042;-88
2023/10/17 14:23:13;;;;;;;;;;;14.90;27.50;;;;;;5007168;28;20053;-85
2023/10/17 14:26:00;;;;;;;16.70;11.05;;;13.90;34.40;;;;;;5017722;28;19925;-89
2023/10/17 14:28:52;;;;;;;17.98;10.98;;;13.30;48.00;;;;;;5012043;28;20120;-88
2023/10/17 14:31:43;;;;;;;15.73;9.95;;;12.90;71.10;;;;;;5016864;28;20033;-88
2023/10/17 14:34:32;;;;;;;15.10;11.15;;;12.60;86.50;;;;;;5006341;28;20042;-88
2023/10/17 14:37:23;;;;;;;16.95;10.45;;;12.20;98.60;;;;;;5017005;28;20691;-88
2023/10/17 14:40:12;;;;;;;20.83;11.52;;;12.10;99.90;;;;;;5001881;28;20048;-85
2023/10/17 14:42:59;;;;;;;17.83;10.98;;;12.10;99.90;;;;;;5013871;28;20521;-87
2023/10/17 14:45:47;;;;;;;15.82;10.10;;;12.00;99.90;;;;;;5012905;28;20132;-87
2023/10/17 14:48:34;;;;;;;14.98;11.13;;;11.90;99.90;;;;;;5006448;28;20057;-87
2023/10/17 14:51:22;;;;;;;15.38;10.25;;;11.70;99.90;;;;;;5006177;28;20463;-88
2023/10/17 14:54:10;;;;;;;16.02;10.38;;;11.70;99.90;;;;;;5005195;28;20057;-89
2023/10/17 14:57:02;;;;;;;15.25;10.43;;;11.50;99.90;;;;;;5024622;28;20057;-87
2023/10/17 14:59:49;;;;;;;18.73;10.88;;;11.50;99.90;;;;;;5009074;28;20046;-87
2023/10/17 15:02:39;;;;;;;13.85;9.40;;;11.50;99.90;;;;;;5014059;28;20201;-89
2023/10/17 15:05:27;;;;;;;16.70;10.30;;;11.80;99.90;;;;;;5010555;28;20363;-88
2023/10/17 15:08:14;;;;;;;15.82;9.68;;;12.50;99.90;;;;;;5015323;28;20065;-89
2023/10/17 15:11:05;;;;;;;15.55;9.27;;;13.00;99.90;;;;;;5014905;28;20042;-89
2023/10/17 15:13:52;;;;;;;14.25;9.95;;;13.40;99.90;;;;;;5016425;28;20042;-89
2023/10/17 15:16:42;;;;;;;14.05;10.48;;;13.50;99.90;;;;;;5019656;28;20054;-87
2023/10/17 15:19:29;;;;;;;12.73;10.13;;;13.30;99.90;;;;;;5033248;28;20057;-88
2023/10/17 15:22:17;;;;;;;20.05;10.68;;;13.20;99.90;;;;;;5034808;28;20051;-87
2023/10/17 15:25:05;;;;;;;15.40;9.98;;;13.00;99.90;;;;;;5026250;28;20053;-89
2023/10/17 15:27:55;;;;;;;16.65;11.23;;;12.80;99.90;;;;;;5013175;28;20049;-81
2023/10/17 15:30:45;;;;;;;17.95;10.43;;;12.20;99.90;;;;;;5013986;28;20409;-87
2023/10/17 15:33:33;;;;;;;16.90;10.68;;;11.90;99.90;;;;;;5017913;28;20053;-90
2023/10/17 15:36:25;;;;;;;16.40;10.48;;;11.70;99.90;;;;;;5014224;28;20169;-88
2023/10/17 15:39:18;;;;;;;17.58;11.98;;;11.40;99.90;;;;;;5016473;28;20135;-87
2023/10/17 15:42:05;;;;;;;14.60;10.88;;;11.00;99.90;;;;;;5025483;28;20046;-89
2023/10/17 15:44:54;;;;;;;16.00;10.57;;;10.80;99.90;;;;;;5023673;28;20053;-80
2023/10/17 15:47:43;;;;;;;14.82;10.68;;;10.80;99.90;;;;;;5019263;28;20072;-88
2023/10/17 15:50:30;;;;;;;17.13;11.65;;;10.70;99.90;;;;;;5032829;28;20492;-86
2023/10/17 15:53:17;;;;;;;15.85;10.98;;;10.50;99.90;;;;;;5024690;28;20461;-89
2023/10/17 15:56:05;;;;;;;17.75;10.45;;;10.30;99.90;;;;;;5026436;28;20072;-88
2023/10/17 15:58:53;;;;;;;17.92;10.82;;;10.10;99.90;;;;;;5013838;28;20076;-90
2023/10/17 16:01:41;;;;;;;18.90;11.18;;;9.90;99.90;;;;;;5011733;28;20050;-87
2023/10/17 16:04:30;;;;;;;15.05;10.60;;;9.70;99.90;;;;;;5022074;28;20038;-87
2023/10/17 16:07:18;;;;;;;16.35;11.13;;;9.60;99.90;;;;;;5026039;28;20438;-90
2023/10/17 16:10:09;;;;;;;15.27;10.90;;;9.40;99.90;;;;;;5029247;28;20046;-83
2023/10/17 16:12:56;;;;;;;20.15;11.90;;;9.30;99.90;;;;;;5013707;28;20101;-88
2023/10/17 16:15:46;;;;;;;21.08;11.98;;;9.10;99.90;;;;;;5015907;28;20050;-89
2023/10/17 16:18:35;;;;;;;17.70;12.50;;;8.90;1.00;;;;;;5017144;28;20073;-90
2023/10/17 16:21:26;;;;;;;21.00;12.77;;;8.80;1.00;;;;;;5006934;28;20046;-90
2023/10/17 16:24:14;;;;;;;24.13;12.77;;;8.70;1.00;;;;;;5017982;28;20045;-87
2023/10/17 16:27:01;;;;;;;16.65;12.48;;;8.60;1.00;;;;;;5020121;28;20102;-90
2023/10/17 16:29:48;;;;;;;23.80;13.02;;;8.60;57.40;;;;;;5020692;28;20048;-90
2023/10/17 16:32:37;;;;;;;18.73;12.40;;;8.50;99.90;;;;;;5013330;28;20054;-88
2023/10/17 16:35:24;;;;;;;20.45;11.77;;;8.40;99.90;;;;;;5027998;28;20049;-87
2023/10/17 16:38:14;;;;;;;16.13;11.93;;;8.40;99.90;;;;;;5020128;28;20043;-89
2023/10/17 16:41:03;;;;;;;17.52;11.57;;;8.30;99.90;;;;;;5015264;28;20056;-89
2023/10/17 16:43:52;;;;;;;20.88;12.27;;;8.20;99.90;;;;;;5019876;28;20517;-89
2023/10/17 16:46:41;;;;;;;18.15;11.75;;;8.20;99.90;;;;;;5019081;28;20038;-88
2023/10/17 16:49:33;;;;;;;18.60;12.10;;;8.10;1.00;;;;;;5000914;28;20042;-88